createdAt,value
2019-05-09T00:01:39.384Z,5.17
2019-05-09T00:04:09.799Z,4.78
2019-05-09T00:06:40.011Z,4.80
2019-05-09T00:09:10.237Z,4.45
2019-05-09T00:11:40.794Z,5.00
2019-05-09T00:14:13.422Z,5.37
2019-05-09T00:16:44.055Z,4.75
2019-05-09T00:19:14.691Z,4.35
2019-05-09T00:21:54.078Z,4.55
2019-05-09T00:24:24.831Z,4.10
2019-05-09T00:26:55.213Z,4.55
2019-05-09T00:29:33.440Z,4.30
2019-05-09T00:32:08.885Z,5.08
2019-05-09T00:34:39.322Z,4.90
2019-05-09T00:37:09.652Z,4.80
2019-05-09T00:39:39.863Z,4.40
2019-05-09T00:42:10.107Z,4.40
2019-05-09T00:44:53.279Z,4.42
2019-05-09T00:47:28.637Z,4.95
2019-05-09T00:49:59.105Z,4.97
2019-05-09T00:52:29.310Z,4.42
2019-05-09T00:54:59.904Z,4.50
2019-05-09T00:57:36.247Z,4.58
2019-05-09T01:00:14.696Z,4.35
2019-05-09T01:02:45.262Z,4.35
2019-05-09T01:05:16.174Z,4.62
2019-05-09T01:07:46.475Z,4.20
2019-05-09T01:10:17.056Z,5.08
2019-05-09T01:12:47.655Z,4.83
2019-05-09T01:15:18.596Z,4.53
2019-05-09T01:17:48.849Z,4.47
2019-05-09T01:20:20.118Z,4.50
2019-05-09T01:22:50.752Z,4.70
2019-05-09T01:25:21.337Z,4.20
2019-05-09T01:27:53.696Z,4.70
2019-05-09T01:30:24.348Z,4.67
2019-05-09T01:33:13.623Z,4.75
2019-05-09T01:35:44.731Z,4.35
2019-05-09T01:38:15.098Z,4.78
2019-05-09T01:40:45.338Z,4.92
2019-05-09T01:43:17.099Z,4.78
2019-05-09T01:45:47.729Z,5.25
2019-05-09T01:48:18.382Z,4.83
2019-05-09T01:50:49.042Z,4.45
2019-05-09T01:53:20.996Z,4.55
2019-05-09T01:56:03.661Z,4.97
2019-05-09T01:58:34.587Z,4.62
2019-05-09T02:01:07.167Z,4.62
2019-05-09T02:03:37.465Z,3.85
2019-05-09T02:06:07.773Z,5.35
2019-05-09T02:08:38.029Z,4.78
2019-05-09T02:11:08.271Z,4.62
2019-05-09T02:13:41.373Z,4.28
2019-05-09T02:16:13.987Z,4.80
2019-05-09T02:18:45.763Z,4.80
2019-05-09T02:21:16.122Z,4.50
2019-05-09T02:23:46.357Z,4.12
2019-05-09T02:26:16.642Z,4.60
2019-05-09T02:28:47.215Z,4.05
2019-05-09T02:31:17.842Z,4.78
2019-05-09T02:33:48.461Z,4.50
2019-05-09T02:36:19.228Z,4.03
2019-05-09T02:38:49.581Z,4.10
2019-05-09T02:41:20.041Z,4.30
2019-05-09T02:43:51.915Z,4.00
2019-05-09T02:46:42.009Z,4.62
2019-05-09T02:49:12.716Z,4.45
2019-05-09T02:51:43.689Z,4.30
2019-05-09T02:54:14.319Z,4.33
2019-05-09T02:56:44.628Z,4.12
2019-05-09T02:59:19.543Z,4.33
2019-05-09T03:01:51.477Z,4.50
2019-05-09T03:04:21.709Z,4.70
2019-05-09T03:06:51.924Z,4.90
2019-05-09T03:09:22.221Z,4.53
2019-05-09T03:11:52.439Z,4.42
2019-05-09T03:14:22.652Z,4.70
2019-05-09T03:16:52.864Z,4.53
2019-05-09T03:19:23.114Z,5.10
2019-05-09T03:21:58.212Z,5.22
2019-05-09T03:24:29.126Z,5.05
2019-05-09T03:27:01.073Z,4.42
2019-05-09T03:29:35.864Z,4.20
2019-05-09T03:32:09.200Z,4.55
2019-05-09T03:34:38.805Z,4.58
2019-05-09T03:37:09.033Z,4.10
2019-05-09T03:39:39.259Z,4.42
2019-05-09T03:42:09.487Z,4.72
2019-05-09T03:44:39.703Z,4.47
2019-05-09T03:47:11.551Z,3.60
2019-05-09T03:49:41.848Z,4.30
2019-05-09T03:52:12.077Z,4.55
2019-05-09T03:54:42.300Z,4.35
2019-05-09T03:57:15.428Z,4.12
2019-05-09T03:59:48.001Z,4.80
2019-05-09T04:02:17.954Z,4.80
2019-05-09T04:04:48.683Z,4.42
2019-05-09T04:07:19.330Z,4.53
2019-05-09T04:09:49.950Z,4.78
2019-05-09T04:12:20.306Z,4.85
2019-05-09T04:14:53.992Z,4.33
2019-05-09T04:17:27.955Z,4.60
2019-05-09T04:19:57.909Z,4.67
2019-05-09T04:22:28.165Z,4.83
2019-05-09T04:24:58.754Z,4.58
2019-05-09T04:27:31.042Z,4.55
2019-05-09T04:30:01.932Z,4.58
2019-05-09T04:32:32.641Z,4.50
2019-05-09T04:35:08.030Z,4.28
2019-05-09T04:37:38.099Z,4.07
2019-05-09T04:40:08.723Z,4.35
2019-05-09T04:42:43.037Z,4.60
2019-05-09T04:45:13.369Z,4.40
2019-05-09T04:47:43.710Z,5.00
2019-05-09T04:50:15.333Z,4.50
2019-05-09T04:52:47.523Z,4.85
2019-05-09T04:55:20.174Z,4.78
2019-05-09T04:57:51.003Z,4.50
2019-05-09T05:00:32.352Z,4.75
2019-05-09T05:03:02.600Z,4.53
2019-05-09T05:05:34.540Z,4.25
2019-05-09T05:08:04.771Z,4.10
2019-05-09T05:10:37.253Z,4.50
2019-05-09T05:13:23.276Z,4.40
2019-05-09T05:15:43.387Z,4.42
2019-05-09T05:18:20.229Z,4.67
2019-05-09T05:20:52.617Z,4.30
2019-05-09T05:23:34.888Z,4.53
2019-05-09T05:26:05.543Z,4.17
2019-05-09T05:28:38.040Z,5.03
2019-05-09T05:31:07.868Z,4.92
2019-05-09T05:33:51.108Z,4.95
2019-05-09T05:36:20.881Z,4.78
2019-05-09T05:38:51.830Z,4.78
2019-05-09T05:41:22.194Z,4.80
2019-05-09T05:43:52.423Z,4.50
2019-05-09T05:46:24.329Z,4.33
2019-05-09T05:48:57.758Z,5.08
2019-05-09T05:51:30.517Z,4.90
2019-05-09T05:54:02.689Z,4.53
2019-05-09T05:56:32.954Z,5.05
2019-05-09T05:59:03.574Z,4.60
2019-05-09T06:01:34.297Z,4.92
2019-05-09T06:04:04.809Z,5.30
2019-05-09T06:06:37.461Z,4.60
2019-05-09T06:09:10.172Z,5.30
2019-05-09T06:11:51.141Z,5.70
2019-05-09T06:14:21.411Z,5.03
2019-05-09T06:16:53.171Z,4.83
2019-05-09T06:19:24.746Z,5.20
2019-05-09T06:21:57.225Z,4.83
2019-05-09T06:24:28.207Z,4.92
2019-05-09T06:26:58.939Z,4.72
2019-05-09T06:29:29.540Z,5.72
2019-05-09T06:32:00.849Z,4.72
2019-05-09T06:34:32.561Z,4.72
2019-05-09T06:37:03.560Z,4.95
2019-05-09T06:39:33.907Z,4.28
2019-05-09T06:42:04.850Z,5.00
2019-05-09T06:44:42.639Z,4.78
2019-05-09T06:47:20.729Z,4.58
2019-05-09T06:49:58.530Z,4.97
2019-05-09T06:52:28.849Z,4.58
2019-05-09T06:54:59.188Z,4.70
2019-05-09T06:57:29.580Z,4.50
2019-05-09T06:59:59.791Z,4.87
2019-05-09T07:02:34.428Z,4.53
2019-05-09T07:05:09.877Z,5.50
2019-05-09T07:07:41.839Z,4.90
2019-05-09T07:10:12.237Z,4.72
2019-05-09T07:12:42.485Z,4.40
2019-05-09T07:15:13.250Z,5.35
2019-05-09T07:17:43.530Z,4.62
2019-05-09T07:20:13.844Z,4.55
2019-05-09T07:22:48.266Z,4.40
2019-05-09T07:25:22.928Z,4.67
2019-05-09T07:27:53.229Z,4.85
2019-05-09T07:30:43.647Z,5.22
2019-05-09T07:33:15.501Z,4.67
2019-05-09T07:35:47.614Z,4.60
2019-05-09T07:38:19.925Z,4.60
2019-05-09T07:43:21.781Z,4.37
2019-05-09T07:46:04.559Z,4.35
2019-05-09T07:48:38.091Z,4.95
2019-05-09T07:51:08.339Z,4.85
2019-05-09T07:53:38.757Z,4.80
2019-05-09T07:56:09.115Z,5.00
2019-05-09T07:58:39.291Z,4.37
2019-05-09T08:01:09.585Z,4.75
2019-05-09T08:03:39.774Z,4.42
2019-05-09T08:06:10.455Z,4.55
2019-05-09T08:08:41.817Z,4.60
2019-05-09T08:11:12.575Z,6.30
2019-05-09T08:13:43.313Z,4.92
2019-05-09T08:16:20.426Z,5.22
2019-05-09T08:18:50.700Z,5.10
2019-05-09T08:21:38.363Z,5.30
2019-05-09T08:24:09.689Z,6.15
2019-05-09T08:26:39.958Z,6.70
2019-05-09T08:29:10.562Z,7.03
2019-05-09T08:31:41.223Z,6.37
2019-05-09T08:34:11.949Z,6.70
2019-05-09T08:36:42.747Z,6.55
2019-05-09T08:39:13.152Z,6.28
2019-05-09T08:41:43.520Z,6.60
2019-05-09T08:44:15.161Z,6.75
2019-05-09T08:46:48.146Z,6.50
2019-05-09T08:49:20.957Z,5.90
2019-05-09T08:52:10.361Z,6.30
2019-05-09T08:54:44.431Z,5.53
2019-05-09T08:57:14.944Z,5.90
2019-05-09T08:59:48.162Z,5.37
2019-05-09T09:02:21.962Z,6.15
2019-05-09T09:04:49.517Z,5.78
2019-05-09T09:07:19.853Z,5.78
2019-05-09T09:09:50.065Z,6.12
2019-05-09T09:12:30.260Z,5.42
2019-05-09T09:14:52.931Z,5.30
2019-05-09T09:17:23.713Z,5.28
2019-05-09T09:19:54.000Z,4.83
2019-05-09T09:22:24.253Z,5.55
2019-05-09T09:24:54.478Z,5.20
2019-05-09T09:27:24.722Z,5.60
2019-05-09T09:29:55.053Z,6.20
2019-05-09T09:32:28.053Z,5.55
2019-05-09T09:34:58.768Z,5.78
2019-05-09T09:37:44.697Z,5.10
2019-05-09T09:40:01.216Z,5.67
2019-05-09T09:42:31.818Z,5.12
2019-05-09T09:45:02.142Z,4.40
2019-05-09T09:47:32.771Z,4.10
2019-05-09T09:50:04.270Z,4.37
2019-05-09T09:52:35.276Z,5.22
2019-05-09T09:55:08.993Z,4.03
2019-05-09T09:57:39.832Z,3.83
2019-05-09T10:00:31.203Z,3.87
2019-05-09T10:03:02.756Z,4.37
2019-05-09T10:05:38.081Z,4.67
2019-05-09T10:08:13.853Z,4.30
2019-05-09T10:10:41.356Z,4.05
2019-05-09T10:13:14.943Z,4.42
2019-05-09T10:15:53.543Z,3.80
2019-05-09T10:18:43.776Z,4.08
2019-05-09T10:21:15.718Z,3.80
2019-05-09T10:23:48.376Z,3.37
2019-05-09T10:26:18.375Z,3.27
2019-05-09T10:28:50.219Z,3.25
2019-05-09T10:31:20.931Z,3.40
2019-05-09T10:33:51.265Z,3.50
2019-05-09T10:36:21.504Z,3.35
2019-05-09T10:38:52.863Z,3.42
2019-05-09T10:41:23.887Z,3.70
2019-05-09T10:43:57.854Z,3.50
2019-05-09T10:46:48.101Z,3.30
2019-05-09T10:49:04.455Z,3.58
2019-05-09T10:51:34.713Z,3.55
2019-05-09T10:54:07.851Z,3.72
2019-05-09T10:56:38.469Z,3.77
2019-05-09T10:59:09.400Z,3.90
2019-05-09T11:01:39.694Z,3.83
2019-05-09T11:04:09.924Z,4.05
2019-05-09T11:06:40.160Z,3.98
2019-05-09T11:09:11.200Z,3.45
2019-05-09T11:11:41.646Z,3.90
2019-05-09T11:14:27.958Z,4.30
2019-05-09T11:16:59.155Z,3.80
2019-05-09T11:19:21.654Z,3.92
2019-05-09T11:21:53.644Z,3.60
2019-05-09T11:24:45.856Z,4.70
2019-05-09T11:27:10.317Z,3.50
2019-05-09T11:29:40.699Z,3.95
2019-05-09T11:32:11.371Z,3.95
2019-05-09T11:34:42.001Z,4.10
2019-05-09T11:37:12.692Z,4.00
2019-05-09T11:39:43.414Z,3.60
2019-05-09T11:42:14.079Z,4.00
2019-05-09T11:44:46.396Z,3.65
2019-05-09T11:47:31.911Z,4.00
2019-05-09T11:49:49.483Z,3.87
2019-05-09T11:52:19.857Z,4.10
2019-05-09T11:54:50.521Z,3.17
2019-05-09T11:57:20.883Z,3.55
2019-05-09T11:59:51.463Z,3.83
2019-05-09T12:02:22.194Z,3.40
2019-05-09T12:04:53.525Z,3.30
2019-05-09T12:07:23.758Z,3.15
2019-05-09T12:09:54.319Z,3.92
2019-05-09T12:12:28.316Z,3.77
2019-05-09T12:14:58.250Z,3.98
2019-05-09T12:17:40.766Z,3.35
2019-05-09T12:20:09.852Z,3.30
2019-05-09T12:22:33.735Z,4.12
2019-05-09T12:25:08.572Z,3.52
2019-05-09T12:27:39.457Z,3.85
2019-05-09T12:30:10.330Z,4.33
2019-05-09T12:32:40.581Z,3.35
2019-05-09T12:35:10.879Z,3.15
2019-05-09T12:37:43.170Z,3.42
2019-05-09T12:40:14.290Z,3.20
2019-05-09T12:42:45.183Z,3.60
2019-05-09T12:45:18.004Z,3.10
2019-05-09T12:47:48.698Z,3.40
2019-05-09T12:50:19.804Z,2.92
2019-05-09T12:52:51.206Z,3.40
2019-05-09T12:55:21.933Z,2.98
2019-05-09T12:57:52.333Z,2.90
2019-05-09T13:00:23.196Z,2.92
2019-05-09T13:02:55.469Z,2.98
2019-05-09T13:05:27.397Z,2.95
2019-05-09T13:07:58.339Z,3.10
2019-05-09T13:10:28.999Z,2.95
2019-05-09T13:12:59.647Z,3.22
2019-05-09T13:15:32.051Z,3.33
2019-05-09T13:18:02.339Z,2.70
2019-05-09T13:20:32.736Z,2.83
2019-05-09T13:23:03.331Z,3.55
2019-05-09T13:25:33.983Z,3.35
2019-05-09T13:28:04.525Z,3.10
2019-05-09T13:30:34.810Z,2.80
2019-05-09T13:33:09.884Z,2.80
2019-05-09T13:35:40.690Z,2.90
2019-05-09T13:38:11.526Z,2.80
2019-05-09T13:40:41.777Z,3.20
2019-05-09T13:43:13.716Z,3.15
2019-05-09T13:45:43.983Z,3.40
2019-05-09T13:48:32.135Z,3.47
2019-05-09T13:50:48.013Z,3.37
2019-05-09T13:53:19.918Z,3.75
2019-05-09T13:55:50.837Z,3.10
2019-05-09T13:58:21.609Z,3.10
2019-05-09T14:00:58.917Z,3.80
2019-05-09T14:03:24.663Z,3.42
2019-05-09T14:05:54.941Z,3.25
2019-05-09T14:08:25.259Z,3.42
2019-05-09T14:10:58.283Z,3.95
2019-05-09T14:13:30.296Z,3.50
2019-05-09T14:16:15.634Z,3.90
2019-05-09T14:18:33.935Z,4.35
2019-05-09T14:21:04.291Z,3.87
2019-05-09T14:23:36.887Z,4.65
2019-05-09T14:26:09.352Z,4.65
2019-05-09T14:28:39.150Z,4.70
2019-05-09T14:31:10.120Z,4.33
2019-05-09T14:33:40.461Z,4.25
2019-05-09T14:36:11.101Z,4.42
2019-05-09T14:38:41.463Z,3.95
2019-05-09T14:41:11.688Z,3.72
2019-05-09T14:43:42.315Z,4.20
2019-05-09T14:46:12.776Z,3.95
2019-05-09T14:48:43.345Z,4.15
2019-05-09T14:51:15.263Z,4.30
2019-05-09T14:53:45.835Z,4.08
2019-05-09T14:56:16.474Z,3.92
2019-05-09T14:58:48.541Z,4.33
2019-05-09T15:01:19.309Z,3.95
2019-05-09T15:04:03.465Z,4.10
2019-05-09T15:06:33.785Z,4.00
2019-05-09T15:09:08.261Z,4.00
2019-05-09T15:11:39.844Z,4.47
2019-05-09T15:14:13.322Z,4.40
2019-05-09T15:16:43.883Z,4.35
2019-05-09T15:19:14.550Z,4.97
2019-05-09T15:21:45.224Z,4.42
2019-05-09T15:24:15.893Z,4.03
2019-05-09T15:26:47.909Z,4.25
2019-05-09T15:29:18.695Z,4.33
2019-05-09T15:31:54.456Z,4.30
2019-05-09T15:34:23.289Z,8.53
2019-05-09T15:36:54.867Z,3.87
2019-05-09T15:39:27.786Z,4.28
2019-05-09T15:41:58.144Z,4.60
2019-05-09T15:44:28.969Z,4.62
2019-05-09T15:47:00.898Z,4.08
2019-05-09T15:49:41.966Z,4.17
2019-05-09T15:52:13.834Z,3.77
2019-05-09T15:54:44.496Z,3.75
2019-05-09T15:57:17.613Z,4.08
2019-05-09T15:59:48.105Z,3.83
2019-05-09T16:02:20.521Z,3.95
2019-05-09T16:04:50.828Z,3.50
2019-05-09T16:07:21.684Z,3.35
2019-05-09T16:09:52.046Z,3.35
2019-05-09T16:12:22.295Z,3.58
2019-05-09T16:14:54.071Z,3.95
2019-05-09T16:17:28.554Z,3.98
2019-05-09T16:20:04.912Z,3.52
2019-05-09T16:22:39.266Z,3.25
2019-05-09T16:25:10.266Z,4.20
2019-05-09T16:27:42.132Z,4.30
2019-05-09T16:30:12.550Z,3.27
2019-05-09T16:32:42.786Z,3.27
2019-05-09T16:35:13.117Z,3.85
2019-05-09T16:38:01.750Z,3.40
2019-05-09T16:40:16.122Z,3.20
2019-05-09T16:42:47.488Z,3.62
2019-05-09T16:45:18.488Z,3.58
2019-05-09T16:47:49.178Z,4.10
2019-05-09T16:50:20.002Z,3.92
2019-05-09T16:52:50.719Z,4.30
2019-05-09T16:55:23.023Z,3.87
2019-05-09T16:57:58.771Z,4.00
2019-05-09T17:00:32.253Z,3.72
2019-05-09T17:03:04.603Z,3.25
2019-05-09T17:05:37.451Z,3.65
2019-05-09T17:08:08.365Z,3.80
2019-05-09T17:10:38.757Z,3.67
2019-05-09T17:13:09.326Z,3.67
2019-05-09T17:15:40.173Z,3.67
2019-05-09T17:18:10.925Z,4.40
2019-05-09T17:20:48.414Z,3.50
2019-05-09T17:23:21.783Z,4.08
2019-05-09T17:25:52.077Z,4.08
2019-05-09T17:28:22.766Z,3.65
2019-05-09T17:30:53.544Z,3.70
2019-05-09T17:33:24.280Z,4.25
2019-05-09T17:35:54.915Z,4.87
2019-05-09T17:38:27.897Z,4.30
2019-05-09T17:40:57.967Z,4.33
2019-05-09T17:43:29.011Z,4.20
2019-05-09T17:45:59.828Z,4.67
2019-05-09T17:48:30.146Z,4.75
2019-05-09T17:51:00.776Z,4.47
2019-05-09T17:53:33.661Z,4.80
2019-05-09T17:56:03.453Z,5.50
2019-05-09T17:58:33.684Z,5.20
2019-05-09T18:01:04.301Z,4.78
2019-05-09T18:03:34.651Z,4.90
2019-05-09T18:06:08.111Z,5.20
2019-05-09T18:08:37.864Z,5.95
2019-05-09T18:11:10.056Z,5.47
2019-05-09T18:13:41.175Z,5.47
2019-05-09T18:16:12.014Z,5.62
2019-05-09T18:18:42.407Z,5.55
2019-05-09T18:21:17.651Z,5.80
2019-05-09T18:23:47.998Z,6.30
2019-05-09T18:26:18.738Z,7.40
2019-05-09T18:28:50.118Z,7.83
2019-05-09T18:31:22.614Z,9.35
2019-05-09T18:33:54.977Z,8.35
2019-05-09T18:36:25.327Z,7.42
2019-05-09T18:38:55.563Z,7.22
2019-05-09T18:41:28.511Z,7.17
2019-05-09T18:43:58.123Z,7.00
2019-05-09T18:46:28.776Z,7.28
2019-05-09T18:48:59.428Z,10.40
2019-05-09T18:51:29.743Z,8.40
2019-05-09T18:54:00.348Z,12.88
2019-05-09T18:56:30.641Z,20.10
2019-05-09T18:59:01.211Z,14.83
2019-05-09T19:01:31.974Z,12.58
2019-05-09T19:04:07.979Z,11.90
2019-05-09T19:06:39.915Z,13.00
2019-05-09T19:09:11.888Z,15.70
2019-05-09T19:11:43.158Z,15.75
2019-05-09T19:14:15.376Z,17.57
2019-05-09T19:16:50.564Z,25.77
2019-05-09T19:19:25.456Z,18.10
2019-05-09T19:22:04.623Z,25.55
2019-05-09T19:24:32.356Z,34.43
2019-05-09T19:27:02.613Z,21.00
2019-05-09T19:29:33.219Z,46.05
2019-05-09T19:32:03.657Z,16.45
2019-05-09T19:34:35.704Z,14.28
2019-05-09T19:37:06.406Z,18.23
2019-05-09T19:39:36.908Z,16.90
2019-05-09T19:42:07.211Z,16.42
2019-05-09T19:44:37.598Z,16.75
2019-05-09T19:47:07.839Z,18.15
2019-05-09T19:49:38.441Z,17.17
2019-05-09T19:52:09.017Z,16.67
2019-05-09T19:54:40.742Z,18.02
2019-05-09T19:57:11.393Z,20.80
2019-05-09T19:59:41.703Z,22.48
2019-05-09T20:02:12.006Z,31.25
2019-05-09T20:04:42.252Z,39.90
2019-05-09T20:07:12.942Z,51.98
2019-05-09T20:09:44.911Z,36.65
2019-05-09T20:12:17.843Z,32.70
2019-05-09T20:14:49.940Z,26.25
2019-05-09T20:17:20.284Z,25.82
2019-05-09T20:19:50.531Z,27.05
2019-05-09T20:22:21.181Z,24.67
2019-05-09T20:24:53.765Z,26.37
2019-05-09T20:27:24.314Z,22.95
2019-05-09T20:29:55.064Z,21.37
2019-05-09T20:32:25.706Z,20.05
2019-05-09T20:34:56.421Z,23.98
2019-05-09T20:37:26.916Z,25.50
2019-05-09T20:39:57.733Z,23.52
2019-05-09T20:42:29.883Z,20.82
2019-05-09T20:45:00.741Z,19.25
2019-05-09T20:47:31.767Z,17.65
2019-05-09T20:50:06.115Z,18.07
2019-05-09T20:52:37.015Z,17.10
2019-05-09T20:55:07.855Z,16.95
2019-05-09T20:57:38.361Z,16.73
2019-05-09T21:00:09.599Z,16.45
2019-05-09T21:02:42.997Z,19.65
2019-05-09T21:05:13.558Z,18.17
2019-05-09T21:07:45.646Z,17.05
2019-05-09T21:10:16.810Z,17.30
2019-05-09T21:12:47.625Z,19.77
2019-05-09T21:15:18.539Z,17.42
2019-05-09T21:17:49.010Z,16.95
2019-05-09T21:20:19.458Z,17.27
2019-05-09T21:22:49.957Z,18.48
2019-05-09T21:25:20.382Z,18.42
2019-05-09T21:27:50.787Z,19.05
2019-05-09T21:30:21.652Z,19.87
2019-05-09T21:32:52.443Z,18.55
2019-05-09T21:35:22.715Z,18.85
2019-05-09T21:37:52.938Z,18.20
2019-05-09T21:40:23.519Z,18.20
2019-05-09T21:42:54.254Z,18.25
2019-05-09T21:45:25.003Z,18.57
2019-05-09T21:47:55.647Z,17.57
2019-05-09T21:50:25.962Z,17.02
2019-05-09T21:52:56.179Z,16.77
2019-05-09T21:55:26.943Z,17.35
2019-05-09T21:57:57.322Z,17.10
2019-05-09T22:00:36.108Z,17.48
2019-05-09T22:03:07.244Z,17.52
2019-05-09T22:05:38.203Z,18.07
2019-05-09T22:08:08.922Z,17.80
2019-05-09T22:10:39.623Z,19.42
2019-05-09T22:13:10.200Z,18.70
2019-05-09T22:15:40.423Z,18.80
2019-05-09T22:18:10.681Z,18.00
2019-05-09T22:20:41.245Z,18.30
2019-05-09T22:23:11.543Z,16.32
2019-05-09T22:25:42.031Z,15.43
2019-05-09T22:28:12.630Z,14.33
2019-05-09T22:30:43.275Z,13.93
2019-05-09T22:33:13.979Z,14.03
2019-05-09T22:35:44.712Z,14.35
2019-05-09T22:38:15.378Z,13.65
2019-05-09T22:40:45.854Z,14.35
2019-05-09T22:43:16.460Z,14.00
2019-05-09T22:45:47.105Z,13.08
2019-05-09T22:48:17.741Z,13.78
2019-05-09T22:50:48.065Z,13.70
2019-05-09T22:53:19.802Z,13.20
2019-05-09T22:55:50.466Z,12.88
2019-05-09T22:58:20.767Z,14.15
2019-05-09T23:00:51.171Z,13.43
2019-05-09T23:03:21.428Z,12.80
2019-05-09T23:05:51.823Z,12.35
2019-05-09T23:08:22.393Z,12.05
2019-05-09T23:10:53.645Z,13.75
2019-05-09T23:13:24.401Z,12.65
2019-05-09T23:15:54.724Z,12.78
2019-05-09T23:18:25.294Z,13.15
2019-05-09T23:20:56.846Z,13.03
2019-05-09T23:23:28.907Z,13.32
2019-05-09T23:25:59.623Z,13.98
2019-05-09T23:28:30.060Z,13.55
2019-05-09T23:31:04.967Z,12.88
2019-05-09T23:33:36.824Z,13.45
2019-05-09T23:36:08.768Z,13.70
2019-05-09T23:38:57.175Z,14.68
2019-05-09T23:41:27.894Z,13.13
2019-05-09T23:43:58.184Z,13.80
2019-05-09T23:46:28.868Z,14.45
2019-05-09T23:48:59.508Z,13.65
2019-05-09T23:51:45.500Z,13.55
2019-05-09T23:54:45.787Z,13.93
2019-05-09T23:57:28.453Z,13.20
